Time;durP1;ratioP1;P1;durP2;ratioP2;P2;SDS_P1;SDS_P2;PMS_P1;PMS_P2;Temp;Humidity;BMP_temperature;BMP_pressure;BME280_temperature;BME280_humidity;BME280_pressure;Samples;Min_cycle;Max_cycle;Signal;HPM_P1;HPM_P2
2022/04/20 00:01:23;;;;;;;9.02;3.75;;;;;;;12.36;44.07;101456.44;5076137;28;20142;-62
2022/04/20 00:03:49;;;;;;;5.88;3.30;;;;;;;12.36;43.84;101459.09;5075883;28;20111;-61
2022/04/20 00:06:14;;;;;;;6.63;3.45;;;;;;;12.25;43.65;101458.97;5075427;28;20028;-61
2022/04/20 00:08:41;;;;;;;6.30;3.35;;;;;;;12.25;43.94;101461.63;5075367;28;20121;-61
2022/04/20 00:11:07;;;;;;;5.25;3.28;;;;;;;12.25;43.61;101458.06;5075501;28;20024;-61
2022/04/20 00:13:34;;;;;;;5.28;3.67;;;;;;;12.22;43.90;101456.25;5075491;28;20064;-61
2022/04/20 00:16:00;;;;;;;5.18;3.30;;;;;;;12.16;43.83;101450.91;5076731;28;20024;-61
2022/04/20 00:18:26;;;;;;;8.05;3.42;;;;;;;12.19;44.02;101450.91;5076629;28;20100;-62
2022/04/20 00:20:51;;;;;;;4.47;3.20;;;;;;;12.22;43.72;101450.97;5076246;28;20035;-61
2022/04/20 00:23:17;;;;;;;5.35;3.33;;;;;;;12.20;44.10;101451.78;5076159;28;20024;-61
2022/04/20 00:25:42;;;;;;;6.10;3.40;;;;;;;12.14;44.61;101449.97;5075838;28;20388;-62
2022/04/20 00:28:08;;;;;;;5.47;3.20;;;;;;;12.08;44.85;101457.84;5075807;28;20021;-61
2022/04/20 00:30:33;;;;;;;7.97;3.80;;;;;;;12.01;45.07;101450.66;5075759;28;20024;-61
2022/04/20 00:33:02;;;;;;;5.75;3.42;;;;;;;11.93;44.52;101457.59;5074214;28;20052;-61
2022/04/20 00:35:28;;;;;;;7.85;3.47;;;;;;;11.91;44.29;101460.22;5075945;28;20021;-61
2022/04/20 00:37:54;;;;;;;4.32;3.25;;;;;;;11.86;44.45;101467.22;5075668;28;20027;-61
2022/04/20 00:40:19;;;;;;;5.15;3.40;;;;;;;11.89;44.80;101467.25;5075610;28;20021;-61
2022/04/20 00:42:45;;;;;;;8.48;3.45;;;;;;;11.87;44.29;101468.13;5075680;28;20499;-61
2022/04/20 00:45:12;;;;;;;4.55;3.47;;;;;;;11.79;44.58;101463.53;5075561;28;20023;-61
2022/04/20 00:47:39;;;;;;;6.15;3.50;;;;;;;11.76;45.08;101462.59;5075364;28;20542;-62
2022/04/20 00:50:06;;;;;;;7.32;3.67;;;;;;;11.67;44.98;101468.63;5075677;28;20052;-62
2022/04/20 00:52:32;;;;;;;7.85;3.90;;;;;;;11.67;45.25;101462.47;5075515;28;20029;-61
2022/04/20 00:54:58;;;;;;;6.05;3.80;;;;;;;11.60;44.87;101460.56;5075477;28;20021;-62
2022/04/20 00:57:24;;;;;;;5.47;3.65;;;;;;;11.57;45.00;101469.38;5075189;28;20469;-61
2022/04/20 00:59:52;;;;;;;5.93;3.50;;;;;;;11.53;44.96;101465.78;5075293;28;20101;-62
2022/04/20 01:02:18;;;;;;;5.30;3.65;;;;;;;11.53;45.26;101471.06;5075140;28;20395;-62
2022/04/20 01:04:45;;;;;;;6.78;3.65;;;;;;;11.48;45.40;101475.41;5075668;28;20514;-61
2022/04/20 01:07:15;;;;;;;7.05;3.55;;;;;;;11.49;45.57;101469.22;5075352;28;20423;-61
2022/04/20 01:09:41;;;;;;;5.45;3.63;;;;;;;11.46;45.42;101476.22;5075197;28;20031;-61
2022/04/20 01:12:07;;;;;;;5.78;3.60;;;;;;;11.47;45.79;101473.59;5075010;28;20020;-61
2022/04/20 01:14:34;;;;;;;4.85;3.30;;;;;;;11.42;45.61;101477.91;5074915;28;20017;-61
2022/04/20 01:16:59;;;;;;;5.90;3.53;;;;;;;11.39;45.69;101472.59;5074850;28;20176;-61
2022/04/20 01:19:38;;;;;;;5.70;3.88;;;;;;;11.35;45.48;101475.13;5074853;28;20480;-61
2022/04/20 01:22:04;;;;;;;8.98;3.80;;;;;;;11.35;45.48;101473.41;5074747;28;20119;-61
2022/04/20 01:24:31;;;;;;;7.53;3.65;;;;;;;11.34;45.49;101470.72;5074858;28;20086;-61
2022/04/20 01:26:57;;;;;;;4.78;3.72;;;;;;;11.35;45.32;101469.84;5074960;28;20370;-61
2022/04/20 01:29:24;;;;;;;8.00;3.65;;;;;;;11.35;45.22;101468.13;5074817;28;20469;-61
2022/04/20 01:31:50;;;;;;;5.88;3.40;;;;;;;11.33;45.02;101475.13;5074352;28;20033;-61
2022/04/20 01:34:15;;;;;;;6.63;3.85;;;;;;;11.40;45.14;101473.47;5074512;28;20385;-61
2022/04/20 01:36:41;;;;;;;4.90;3.53;;;;;;;11.28;45.46;101476.78;5074480;28;20380;-61
2022/04/20 01:39:07;;;;;;;6.50;3.78;;;;;;;11.18;45.32;101482.78;5074578;28;20032;-61
2022/04/20 01:41:32;;;;;;;5.57;3.50;;;;;;;11.15;46.35;101475.69;5074480;28;20016;-61
2022/04/20 01:43:57;;;;;;;6.35;4.10;;;;;;;11.13;45.22;101477.38;5074250;28;20131;-61
2022/04/20 01:46:23;;;;;;;5.30;3.78;;;;;;;11.10;45.53;101479.13;5074238;28;20035;-62
2022/04/20 01:48:49;;;;;;;7.03;4.05;;;;;;;11.04;45.60;101482.50;5074341;28;20059;-61
2022/04/20 01:53:59;;;;;;;6.43;3.75;;;;;;;11.06;45.95;101479.91;5074302;28;20043;-61
2022/04/20 01:56:24;;;;;;;7.03;4.00;;;;;;;11.01;45.92;101477.19;5074235;28;20021;-61
2022/04/20 01:58:50;;;;;;;5.85;3.88;;;;;;;11.01;45.72;101480.72;5074356;28;20462;-61
2022/04/20 02:03:59;;;;;;;6.47;3.80;;;;;;;10.88;45.99;101475.16;5074016;28;20102;-61
2022/04/20 02:06:24;;;;;;;7.40;4.20;;;;;;;10.82;45.94;101475.03;5074040;28;20072;-61
2022/04/20 02:08:50;;;;;;;5.35;3.88;;;;;;;10.84;46.78;101479.50;5073974;28;20056;-61
2022/04/20 02:11:15;;;;;;;7.97;4.20;;;;;;;10.88;45.85;101481.34;5073766;28;20025;-61
2022/04/20 02:13:42;;;;;;;5.75;4.10;;;;;;;10.83;46.09;101477.69;5073673;28;20035;-61
2022/04/20 02:16:08;;;;;;;6.97;4.30;;;;;;;10.78;45.96;101474.97;5073640;28;20362;-61
2022/04/20 02:18:34;;;;;;;6.00;4.10;;;;;;;10.84;45.70;101478.63;5073744;28;20459;-61
2022/04/20 02:20:59;;;;;;;7.32;4.00;;;;;;;10.76;45.72;101474.06;5073725;28;20076;-62
2022/04/20 02:23:26;;;;;;;7.43;3.88;;;;;;;10.80;46.36;101476.78;5073687;28;20031;-62
2022/04/20 02:25:52;;;;;;;8.07;4.03;;;;;;;10.66;45.61;101457.97;5056244;28;20115;-61
2022/04/20 02:28:18;;;;;;;6.90;3.70;;;;;;;10.65;46.13;101477.34;5073598;28;20064;-61
2022/04/20 02:30:43;;;;;;;10.43;4.10;;;;;;;10.64;46.08;101473.81;5073447;28;20071;-62
2022/04/20 02:33:09;;;;;;;8.68;4.07;;;;;;;10.60;46.16;101474.59;5073253;28;20044;-61
2022/04/20 02:35:36;;;;;;;7.35;4.20;;;;;;;10.52;46.27;101470.91;5073375;28;20017;-62
2022/04/20 02:38:01;;;;;;;8.05;3.97;;;;;;;10.50;46.36;101475.28;5073485;28;20032;-61
2022/04/20 02:40:26;;;;;;;6.88;3.83;;;;;;;10.46;46.36;101476.97;5073647;28;20465;-61
2022/04/20 02:42:52;;;;;;;7.15;3.95;;;;;;;10.49;46.84;101476.13;5073345;28;20529;-61
2022/04/20 02:45:19;;;;;;;5.82;3.88;;;;;;;10.46;46.73;101476.06;5073191;28;20024;-61
2022/04/20 02:47:45;;;;;;;7.50;4.20;;;;;;;10.38;46.73;101475.91;5073250;28;20028;-61
2022/04/20 02:50:10;;;;;;;6.68;3.83;;;;;;;10.37;46.48;101478.53;5073283;28;20024;-61
2022/04/20 02:52:35;;;;;;;5.50;4.10;;;;;;;10.38;46.25;101475.00;5073117;28;20117;-61
2022/04/20 02:55:01;;;;;;;6.35;3.63;;;;;;;10.34;46.97;101479.34;5072715;28;20024;-61
2022/04/20 02:57:26;;;;;;;6.22;3.72;;;;;;;10.32;46.99;101486.34;5073317;28;20023;-61
2022/04/20 02:59:52;;;;;;;5.70;4.05;;;;;;;10.31;46.72;101487.19;5073061;28;20029;-62
2022/04/20 03:02:17;;;;;;;5.70;4.00;;;;;;;10.32;46.59;101502.19;5073025;28;20473;-61
2022/04/20 03:04:43;;;;;;;6.90;3.88;;;;;;;10.29;46.82;101494.19;5073090;28;20385;-62
2022/04/20 03:07:08;;;;;;;5.85;3.80;;;;;;;10.27;46.64;101491.50;5073117;28;20469;-61
2022/04/20 03:09:34;;;;;;;9.88;3.80;;;;;;;10.23;46.73;101486.97;5073149;28;20020;-61
2022/04/20 03:11:59;;;;;;;6.85;4.13;;;;;;;10.15;46.74;101485.00;5073066;28;20529;-61
2022/04/20 03:14:25;;;;;;;6.15;4.05;;;;;;;10.12;47.23;101495.53;5073176;28;20037;-61
2022/04/20 03:16:50;;;;;;;5.43;4.10;;;;;;;10.09;47.21;101498.09;5072759;28;20027;-61
2022/04/20 03:19:16;;;;;;;5.90;4.05;;;;;;;10.02;47.42;101491.75;5072887;28;20366;-61
2022/04/20 03:21:41;;;;;;;5.63;3.90;;;;;;;9.95;47.67;101496.03;5072962;28;20478;-62
2022/04/20 03:24:08;;;;;;;6.53;4.15;;;;;;;10.01;47.50;101497.91;5072956;28;20093;-62
2022/04/20 03:26:33;;;;;;;11.15;4.00;;;;;;;9.92;47.75;101503.84;5072904;28;20024;-61
2022/04/20 03:28:58;;;;;;;6.32;4.07;;;;;;;9.93;47.52;101496.81;5073898;28;20031;-61
2022/04/20 03:31:24;;;;;;;5.82;3.88;;;;;;;9.91;47.88;101506.47;5075083;28;20028;-62
2022/04/20 03:33:49;;;;;;;8.02;4.30;;;;;;;9.89;47.79;101505.53;5075518;28;20481;-61
2022/04/20 03:36:15;;;;;;;6.57;4.40;;;;;;;9.83;47.89;101501.00;5073386;28;20035;-61
2022/04/20 03:38:41;;;;;;;9.98;4.00;;;;;;;9.83;47.90;101511.56;5072930;28;20107;-61
2022/04/20 03:41:06;;;;;;;5.65;4.05;;;;;;;9.87;47.96;101509.91;5072725;28;20028;-62
2022/04/20 03:43:32;;;;;;;6.85;4.10;;;;;;;9.83;47.65;101510.69;5072862;28;20040;-61
2022/04/20 03:45:58;;;;;;;7.75;4.20;;;;;;;9.81;48.29;101512.38;5072639;28;20056;-61
2022/04/20 03:48:23;;;;;;;7.60;4.20;;;;;;;9.77;47.75;101511.44;5072464;28;20036;-61
2022/04/20 03:50:50;;;;;;;6.22;4.10;;;;;;;9.70;48.19;101518.28;5073037;28;20099;-62
2022/04/20 03:53:15;;;;;;;6.22;4.07;;;;;;;9.73;48.24;101517.47;5072760;28;20099;-61
2022/04/20 03:55:43;;;;;;;5.57;4.07;;;;;;;9.76;47.93;101521.09;5072491;28;20503;-62
2022/04/20 03:58:08;;;;;;;6.50;4.25;;;;;;;9.72;47.99;101510.38;5072654;28;20028;-61
2022/04/20 04:00:35;;;;;;;6.32;3.95;;;;;;;9.69;48.66;101507.69;5072590;28;20032;-62
2022/04/20 04:03:00;;;;;;;7.55;4.10;;;;;;;9.69;47.82;101520.91;5072417;28;20032;-61
2022/04/20 04:05:26;;;;;;;7.28;4.22;;;;;;;9.69;48.17;101519.16;5072510;28;20024;-61
2022/04/20 04:07:51;;;;;;;6.65;4.03;;;;;;;9.68;47.96;101516.47;5075549;28;20021;-62
2022/04/20 04:10:16;;;;;;;6.00;3.97;;;;;;;9.64;48.43;101520.78;5076221;28;20059;-61
2022/04/20 04:12:42;;;;;;;7.50;4.35;;;;;;;9.59;48.07;101525.03;5076277;28;20416;-61
2022/04/20 04:15:08;;;;;;;6.55;4.07;;;;;;;9.51;48.27;101519.56;5076042;28;20043;-62
2022/04/20 04:17:34;;;;;;;6.53;4.05;;;;;;;9.50;48.75;101525.69;5075871;28;20103;-62
2022/04/20 04:20:00;;;;;;;11.88;4.55;;;;;;;9.45;48.42;101518.50;5075918;28;20036;-62
2022/04/20 04:22:25;;;;;;;7.35;4.40;;;;;;;9.42;48.98;101528.97;5075869;28;20103;-61
2022/04/20 04:24:50;;;;;;;9.18;4.18;;;;;;;9.45;48.82;101532.59;5076060;28;20108;-61
2022/04/20 04:27:17;;;;;;;6.50;4.10;;;;;;;9.40;49.92;101531.59;5075888;28;20029;-62
2022/04/20 04:29:42;;;;;;;11.40;5.25;;;;;;;9.35;49.17;101530.56;5075648;28;20075;-61
2022/04/20 04:32:08;;;;;;;6.45;3.97;;;;;;;9.38;49.09;101525.38;5074713;28;20159;-61
2022/04/20 04:34:34;;;;;;;9.13;4.53;;;;;;;9.37;48.87;101541.16;5074584;28;20355;-61
2022/04/20 04:36:59;;;;;;;7.35;4.75;;;;;;;9.45;48.97;101540.50;5075343;28;20016;-61
2022/04/20 04:39:28;;;;;;;7.45;4.22;;;;;;;9.47;48.88;101545.84;5074764;28;20036;-61
2022/04/20 04:41:54;;;;;;;7.07;4.38;;;;;;;9.46;48.84;101541.38;5075782;28;20214;-61
2022/04/20 04:44:20;;;;;;;7.97;4.28;;;;;;;9.49;48.88;101546.75;5075453;28;20136;-62
2022/04/20 04:49:31;;;;;;;5.35;3.92;;;;;;;9.49;49.07;101552.03;5074979;28;20078;-62
2022/04/20 04:51:58;;;;;;;6.93;4.40;;;;;;;9.51;49.01;101559.16;5074817;28;20108;-61
2022/04/20 04:54:24;;;;;;;6.75;4.35;;;;;;;9.49;49.05;101558.19;5074528;28;20064;-62
2022/04/20 04:56:50;;;;;;;8.38;4.07;;;;;;;9.51;48.79;101555.63;5074702;28;20016;-62
2022/04/20 04:59:18;;;;;;;6.53;4.18;;;;;;;9.56;48.98;101567.19;5074486;28;20023;-62
2022/04/20 05:01:44;;;;;;;6.90;4.40;;;;;;;9.60;48.72;101568.16;5074283;28;20461;-62
2022/04/20 05:04:11;;;;;;;6.47;4.10;;;;;;;9.64;48.62;101557.72;5074461;28;20101;-61
2022/04/20 05:06:36;;;;;;;6.28;3.90;;;;;;;9.65;48.28;101564.78;5074240;28;20028;-61
2022/04/20 05:09:03;;;;;;;6.25;4.13;;;;;;;9.75;48.14;101564.16;5074544;28;20020;-62
2022/04/20 05:11:29;;;;;;;6.38;4.30;;;;;;;9.76;48.03;101571.25;5055972;28;20075;-61
2022/04/20 05:13:55;;;;;;;5.38;3.90;;;;;;;9.77;48.26;101565.09;5074339;28;20561;-61
2022/04/20 05:16:21;;;;;;;6.43;4.38;;;;;;;9.75;48.49;101574.72;5073988;28;20033;-62
2022/04/20 05:18:46;;;;;;;6.13;4.20;;;;;;;9.76;48.79;101576.53;5073630;28;20028;-62
2022/04/20 05:21:12;;;;;;;5.38;4.15;;;;;;;9.82;48.05;101575.78;5074118;28;20021;-61
2022/04/20 05:23:37;;;;;;;8.25;4.45;;;;;;;9.87;48.03;101576.78;5074161;28;20070;-62
2022/04/20 05:26:02;;;;;;;5.50;4.00;;;;;;;9.92;47.97;101584.81;5073951;28;20422;-61
2022/04/20 05:28:28;;;;;;;8.63;4.07;;;;;;;9.91;48.15;101567.19;5074051;28;20431;-61
2022/04/20 05:30:54;;;;;;;7.68;4.18;;;;;;;9.96;48.45;101570.84;5073893;28;20025;-61
2022/04/20 05:33:20;;;;;;;6.13;4.22;;;;;;;10.00;47.82;101572.69;5073147;28;20130;-62
2022/04/20 05:35:46;;;;;;;14.65;4.70;;;;;;;10.14;48.71;101578.31;5074041;28;20466;-61
2022/04/20 05:43:39;;;;;;;13.02;4.70;;;;;;;10.36;47.60;101578.00;5073771;28;20043;-62
2022/04/20 05:46:06;;;;;;;13.25;5.00;;;;;;;10.44;47.24;101572.88;5073766;28;20107;-62
2022/04/20 05:48:34;;;;;;;11.95;4.57;;;;;;;10.52;47.36;101580.13;5072975;28;20438;-62
2022/04/20 05:51:00;;;;;;;11.32;4.93;;;;;;;10.62;47.56;101580.34;5073284;28;20032;-61
2022/04/20 05:53:25;;;;;;;8.65;4.90;;;;;;;10.72;47.13;101574.41;5054534;28;20461;-60
2022/04/20 05:55:51;;;;;;;35.33;20.88;;;;;;;10.85;46.49;101578.22;5072866;28;20107;-62
2022/04/20 05:58:17;;;;;;;14.90;9.57;;;;;;;10.96;47.35;101582.88;5073401;28;20482;-62
2022/04/20 06:00:42;;;;;;;8.77;4.95;;;;;;;11.02;46.23;101582.09;5073338;28;20107;-61
2022/04/20 06:03:08;;;;;;;10.90;5.47;;;;;;;11.12;46.16;101584.06;5073291;28;20036;-61
2022/04/20 06:05:38;;;;;;;7.07;4.85;;;;;;;11.26;46.03;101584.31;5073157;28;20025;-62
2022/04/20 06:08:04;;;;;;;6.65;4.50;;;;;;;11.34;45.34;101579.19;5073439;28;20082;-61
2022/04/20 06:10:32;;;;;;;7.57;4.80;;;;;;;11.43;45.04;101577.59;5073158;28;20021;-61
2022/04/20 06:12:58;;;;;;;6.22;4.70;;;;;;;11.53;44.82;101574.28;5073311;28;20032;-61
2022/04/20 06:15:23;;;;;;;6.82;4.90;;;;;;;11.63;44.80;101577.09;5072987;28;20024;-62
2022/04/20 06:17:48;;;;;;;9.35;4.80;;;;;;;11.68;44.52;101586.00;5073239;28;20373;-61
2022/04/20 06:20:14;;;;;;;7.60;4.55;;;;;;;11.77;44.59;101586.16;5072961;28;20477;-61
2022/04/20 06:22:40;;;;;;;6.88;4.80;;;;;;;11.94;44.14;101575.91;5073052;28;20077;-62
2022/04/20 06:25:06;;;;;;;7.38;4.45;;;;;;;12.10;44.17;101579.72;5072968;28;20025;-61
2022/04/20 06:27:32;;;;;;;11.05;4.43;;;;;;;12.29;43.59;101579.16;5073420;28;20028;-61
2022/04/20 06:29:58;;;;;;;7.72;4.50;;;;;;;12.36;42.69;101578.34;5071937;28;20514;-61
2022/04/20 06:32:24;;;;;;;14.38;4.47;;;;;;;12.48;43.03;101583.84;5072770;28;20064;-61
2022/04/20 06:34:53;;;;;;;6.70;4.25;;;;;;;12.62;42.51;101585.78;5072910;28;20032;-62
2022/04/20 06:37:19;;;;;;;6.82;4.40;;;;;;;12.74;42.58;101586.84;5072788;28;20032;-62
2022/04/20 06:39:45;;;;;;;7.53;4.53;;;;;;;12.93;42.38;101581.78;5073022;28;20492;-61
2022/04/20 06:42:12;;;;;;;7.47;4.70;;;;;;;13.04;41.73;101586.38;5072706;28;20153;-61
2022/04/20 06:44:37;;;;;;;8.95;4.70;;;;;;;13.16;41.09;101584.75;5072722;28;20052;-62
2022/04/20 06:47:03;;;;;;;12.00;4.47;;;;;;;13.24;41.00;101594.63;5072566;28;20056;-61
2022/04/20 06:49:29;;;;;;;10.10;4.63;;;;;;;13.32;40.91;101580.53;5072895;28;20032;-61
2022/04/20 07:00:08;;;;;;;7.22;4.45;;;;;;;14.25;38.81;101587.59;5072711;28;20389;-61
2022/04/20 07:02:35;;;;;;;8.82;4.72;;;;;;;14.26;38.98;101591.16;5072444;28;20115;-61
2022/04/20 07:05:00;;;;;;;7.85;4.50;;;;;;;14.39;38.64;101589.47;5072727;28;20027;-61
2022/04/20 07:07:26;;;;;;;7.95;4.47;;;;;;;14.57;38.30;101586.09;5072604;28;20024;-61
2022/04/20 07:09:51;;;;;;;11.38;4.50;;;;;;;14.68;37.54;101590.59;5072238;28;20417;-62
2022/04/20 07:12:17;;;;;;;11.10;4.68;;;;;;;14.90;36.98;101586.28;5072388;28;20036;-61
2022/04/20 07:14:42;;;;;;;9.68;4.38;;;;;;;15.10;36.95;101582.81;5072235;28;20038;-61
2022/04/20 07:17:07;;;;;;;6.72;4.22;;;;;;;15.31;36.90;101590.88;5072505;28;20021;-61
2022/04/20 07:19:34;;;;;;;6.50;4.55;;;;;;;15.47;36.45;101594.47;5072211;28;20020;-61
2022/04/20 07:21:59;;;;;;;6.82;4.05;;;;;;;15.68;35.65;101596.34;5072340;28;20027;-61
2022/04/20 07:24:25;;;;;;;7.03;4.40;;;;;;;15.89;36.38;101591.03;5072310;28;20028;-62
2022/04/20 07:26:50;;;;;;;8.02;4.25;;;;;;;16.16;35.04;101590.16;5072410;28;20063;-62
2022/04/20 07:29:16;;;;;;;6.07;3.90;;;;;;;16.43;35.11;101586.56;5072186;28;20031;-61
2022/04/20 07:31:41;;;;;;;7.13;3.95;;;;;;;16.65;34.18;101583.84;5072297;28;20241;-61
2022/04/20 07:34:08;;;;;;;9.68;4.45;;;;;;;16.75;34.42;101599.00;5071923;28;20080;-62
2022/04/20 07:36:34;;;;;;;7.80;4.18;;;;;;;16.81;33.89;101588.28;5072138;28;20043;-61
2022/04/20 07:38:59;;;;;;;15.77;4.20;;;;;;;17.02;33.70;101590.88;5072268;28;20024;-61
2022/04/20 07:41:25;;;;;;;7.43;4.50;;;;;;;17.22;33.42;101592.59;5072729;28;20048;-61
2022/04/20 07:43:51;;;;;;;6.03;4.00;;;;;;;17.44;32.86;101594.25;5076283;28;20390;-61
2022/04/20 07:46:18;;;;;;;8.75;4.15;;;;;;;17.66;32.76;101589.66;5075973;28;20035;-62
2022/04/20 07:48:43;;;;;;;6.68;4.20;;;;;;;17.69;32.67;101596.78;5076106;28;20374;-61
2022/04/20 07:51:09;;;;;;;6.88;4.07;;;;;;;17.95;32.68;101602.88;5076071;28;20016;-61
2022/04/20 07:53:34;;;;;;;7.03;4.10;;;;;;;18.08;31.92;101594.75;5075902;28;20062;-61
2022/04/20 07:56:00;;;;;;;6.47;4.15;;;;;;;18.26;31.29;101597.25;5078807;28;20074;-62
2022/04/20 07:58:25;;;;;;;7.15;4.00;;;;;;;18.25;30.63;101595.50;5081292;28;20016;-61
2022/04/20 08:00:51;;;;;;;7.72;4.22;;;;;;;18.23;31.83;101595.47;5077716;28;20465;-61
2022/04/20 08:03:18;;;;;;;6.25;3.97;;;;;;;18.57;31.67;101595.16;5076479;28;20048;-61
2022/04/20 08:05:48;;;;;;;7.60;4.10;;;;;;;18.82;30.32;101594.94;5075913;28;20016;-61
2022/04/20 08:08:15;;;;;;;7.47;4.05;;;;;;;19.00;30.10;101592.94;5075392;28;20103;-61
2022/04/20 08:10:40;;;;;;;5.63;3.88;;;;;;;19.12;29.81;101597.25;5075656;28;20048;-61
2022/04/20 08:15:50;;;;;;;5.47;3.83;;;;;;;19.10;28.87;101598.16;5075587;28;20071;-61
2022/04/20 08:18:16;;;;;;;10.95;4.38;;;;;;;19.26;28.87;101600.63;5075119;28;20017;-61
2022/04/20 08:20:43;;;;;;;9.50;3.95;;;;;;;19.40;28.49;101599.56;5075661;28;20024;-61
2022/04/20 08:23:09;;;;;;;7.25;4.20;;;;;;;19.54;28.58;101605.63;5075000;28;20478;-61
2022/04/20 08:25:35;;;;;;;8.30;4.40;;;;;;;19.62;29.02;101609.13;5075186;28;20484;-62
2022/04/20 08:28:00;;;;;;;7.93;4.13;;;;;;;19.76;27.79;101611.59;5074075;28;20021;-61
2022/04/20 08:30:27;;;;;;;6.18;4.18;;;;;;;19.92;27.14;101597.03;5074344;28;20077;-61
2022/04/20 08:32:53;;;;;;;7.10;3.90;;;;;;;20.03;27.27;101602.22;5074633;28;20149;-61
2022/04/20 08:35:19;;;;;;;9.45;3.97;;;;;;;20.22;27.08;101598.34;5075009;28;20505;-61
2022/04/20 08:37:45;;;;;;;6.90;4.20;;;;;;;20.40;27.09;101604.28;5075205;28;20039;-62
2022/04/20 08:40:12;;;;;;;8.20;4.35;;;;;;;20.38;27.06;101604.28;5074619;28;20382;-61
2022/04/20 08:42:39;;;;;;;7.15;4.20;;;;;;;20.47;26.17;101605.94;5074828;28;20020;-61
2022/04/20 08:45:05;;;;;;;6.70;4.00;;;;;;;20.59;25.45;101607.56;5074733;28;20024;-61
2022/04/20 08:47:39;;;;;;;7.22;4.20;;;;;;;20.73;26.38;101606.41;5074882;28;20039;-61
2022/04/20 08:50:06;;;;;;;7.78;4.30;;;;;;;20.90;26.28;101605.19;5074509;28;20028;-62
2022/04/20 08:52:38;;;;;;;5.57;4.10;;;;;;;20.83;25.68;101606.22;5074194;28;20031;-62
2022/04/20 08:55:13;;;;;;;6.88;4.40;;;;;;;20.89;25.94;101598.00;5074619;28;20062;-62
2022/04/20 08:57:39;;;;;;;8.43;4.50;;;;;;;20.88;26.07;101598.94;5075083;28;20035;-61
2022/04/20 09:00:10;;;;;;;8.65;4.30;;;;;;;20.92;24.93;101593.47;5074882;28;20029;-61
2022/04/20 09:02:35;;;;;;;6.53;4.40;;;;;;;21.04;24.33;101591.47;5074584;28;20115;-62
2022/04/20 09:05:03;;;;;;;8.23;4.20;;;;;;;21.34;25.15;101596.22;5074844;28;20537;-61
2022/04/20 09:07:31;;;;;;;6.85;4.32;;;;;;;21.45;25.70;101590.59;5074415;28;20033;-61
2022/04/20 09:09:56;;;;;;;7.35;4.15;;;;;;;21.60;24.99;101590.25;5074628;28;20028;-61
2022/04/20 09:12:26;;;;;;;7.05;4.13;;;;;;;21.67;24.62;101591.88;5074460;28;20440;-61
2022/04/20 09:14:52;;;;;;;7.03;4.40;;;;;;;21.86;24.71;101580.69;5074611;28;20103;-61
2022/04/20 09:17:22;;;;;;;5.63;4.00;;;;;;;21.91;24.81;101581.44;5074420;28;20017;-61
2022/04/20 09:19:54;;;;;;;10.02;4.30;;;;;;;22.12;24.21;101583.63;5074528;28;20020;-61
2022/04/20 09:22:30;;;;;;;10.02;4.50;;;;;;;22.25;24.67;101579.69;5074152;28;20047;-61
2022/04/20 09:25:03;;;;;;;6.70;4.50;;;;;;;22.31;23.76;101577.75;5074087;28;20446;-61
2022/04/20 09:27:30;;;;;;;9.70;4.65;;;;;;;22.28;24.39;101583.25;5074134;28;20040;-62
2022/04/20 09:29:59;;;;;;;8.40;4.50;;;;;;;22.55;23.44;101578.94;5074295;28;20374;-61
2022/04/20 09:32:33;;;;;;;9.32;4.53;;;;;;;22.65;23.53;101575.91;5069966;28;20057;-61
2022/04/20 09:35:03;;;;;;;6.13;4.35;;;;;;;22.84;23.02;101576.31;5054028;28;20025;-61
2022/04/20 09:37:29;;;;;;;8.27;4.35;;;;;;;22.89;22.72;101574.34;5053937;28;20044;-61
2022/04/20 09:39:54;;;;;;;6.55;4.53;;;;;;;23.08;22.54;101568.47;5053945;28;20021;-62
2022/04/20 09:42:20;;;;;;;8.25;4.10;;;;;;;23.33;21.95;101569.47;5053871;28;20470;-61
2022/04/20 09:45:03;;;;;;;7.22;4.03;;;;;;;23.33;21.72;101565.91;5053736;28;20032;-62
2022/04/20 09:50:26;;;;;;;7.38;3.97;;;;;;;23.30;22.33;101555.19;5053699;28;20485;-61
2022/04/20 09:52:55;;;;;;;6.75;3.60;;;;;;;23.12;21.25;101562.91;5053781;28;20449;-62
2022/04/20 09:55:33;;;;;;;7.43;3.70;;;;;;;22.83;22.12;101555.69;5053611;28;20116;-61
2022/04/20 09:58:18;;;;;;;7.28;3.70;;;;;;;23.08;23.04;101555.84;5053663;28;20470;-62
2022/04/20 10:00:46;;;;;;;7.75;3.88;;;;;;;23.35;21.45;101566.75;5053666;28;20307;-62
2022/04/20 10:03:26;;;;;;;6.63;3.42;;;;;;;23.22;21.63;101556.34;5053609;28;20485;-62
2022/04/20 10:05:52;;;;;;;5.20;3.15;;;;;;;23.30;21.26;101549.81;5053500;28;20029;-62
2022/04/20 10:08:18;;;;;;;6.90;3.10;;;;;;;23.32;21.12;101559.63;5053581;28;20025;-62
2022/04/20 10:10:46;;;;;;;7.90;3.45;;;;;;;23.10;20.54;101555.84;5035478;28;20029;-61
2022/04/20 10:13:12;;;;;;;6.30;3.10;;;;;;;22.77;21.06;101558.53;5053520;28;20417;-62
2022/04/20 10:18:25;;;;;;;7.22;2.80;;;;;;;22.44;21.84;101553.19;5053585;28;20095;-62
2022/04/20 10:20:56;;;;;;;5.47;2.72;;;;;;;22.44;21.51;101539.72;5053503;28;20393;-62
2022/04/20 10:23:23;;;;;;;4.97;3.47;;;;;;;22.50;21.87;101542.22;5053295;28;20028;-62
2022/04/20 10:25:52;;;;;;;4.97;3.17;;;;;;;22.58;22.11;101533.94;5053264;28;20101;-61
2022/04/20 10:28:47;;;;;;;6.88;3.00;;;;;;;23.00;22.83;101525.56;5053253;28;20600;-62
2022/04/20 10:31:23;;;;;;;3.70;2.90;;;;;;;23.21;21.70;101532.09;5053049;28;20486;-61
2022/04/20 10:33:49;;;;;;;9.30;3.78;;;;;;;23.46;22.27;101522.31;5068044;28;20048;-61
2022/04/20 10:36:17;;;;;;;5.25;3.55;;;;;;;23.74;21.96;101526.84;5072866;28;20028;-62
2022/04/20 10:38:45;;;;;;;5.07;3.08;;;;;;;24.10;21.52;101524.72;5073276;28;20120;-62
2022/04/20 10:41:13;;;;;;;6.82;3.40;;;;;;;24.16;20.25;101519.13;5073017;28;20025;-62
2022/04/20 10:43:42;;;;;;;4.95;3.10;;;;;;;24.13;21.36;101521.91;5072833;28;20385;-62
2022/04/20 10:46:15;;;;;;;7.90;3.10;;;;;;;24.26;21.27;101514.25;5072709;28;20103;-62
2022/04/20 10:49:07;;;;;;;6.28;3.25;;;;;;;24.14;20.75;101526.38;5072856;28;20037;-61
2022/04/20 10:51:43;;;;;;;4.72;3.20;;;;;;;24.25;21.24;101520.63;5072830;28;20044;-62
2022/04/20 10:54:17;;;;;;;11.02;3.20;;;;;;;24.41;21.42;101513.75;5072702;28;20036;-61
2022/04/20 10:56:50;;;;;;;8.05;3.00;;;;;;;24.54;21.09;101514.19;5072691;28;20027;-62
2022/04/20 10:59:15;;;;;;;5.82;3.00;;;;;;;24.59;21.04;101514.91;5072636;28;20035;-62
2022/04/20 11:02:01;;;;;;;5.22;3.08;;;;;;;24.80;21.01;101509.63;5072854;28;20025;-62
2022/04/20 11:04:42;;;;;;;6.60;3.00;;;;;;;24.55;20.95;101505.16;5072830;28;20066;-62
2022/04/20 11:07:07;;;;;;;5.63;2.80;;;;;;;24.63;20.11;101510.28;5072445;28;20028;-62
2022/04/20 11:09:42;;;;;;;4.00;3.03;;;;;;;24.52;20.34;101513.34;5072794;28;20024;-62
2022/04/20 11:21:12;;;;;;;3.95;3.00;;;;;;;25.00;20.39;101493.50;5072768;28;20109;-62
2022/04/20 11:24:07;;;;;;;6.70;3.38;;;;;;;24.95;20.29;101485.59;5072178;28;20032;-62
2022/04/20 11:26:35;;;;;;;5.47;3.00;;;;;;;24.71;20.05;101476.63;5052403;28;20440;-62
2022/04/20 11:29:09;;;;;;;5.00;3.25;;;;;;;24.78;20.39;101485.34;5072641;28;20077;-62
2022/04/20 11:31:44;;;;;;;5.22;3.20;;;;;;;24.72;22.15;101477.50;5072421;28;20025;-62
2022/04/20 11:34:10;;;;;;;5.63;2.92;;;;;;;25.06;21.07;101477.06;5072076;28;20052;-62
2022/04/20 11:36:44;;;;;;;9.18;3.28;;;;;;;25.18;20.51;101473.00;5072042;28;20543;-62
2022/04/20 11:39:11;;;;;;;8.88;3.47;;;;;;;25.17;19.76;101471.25;5072345;28;20054;-62
2022/04/20 11:41:37;;;;;;;6.07;3.38;;;;;;;25.13;19.63;101465.06;5072386;28;20029;-62
2022/04/20 11:44:03;;;;;;;5.68;3.20;;;;;;;25.37;20.16;101468.63;5072016;28;20037;-62
2022/04/20 11:46:31;;;;;;;5.22;3.20;;;;;;;25.44;19.96;101463.84;5071614;28;20028;-61
2022/04/20 11:48:58;;;;;;;5.20;3.20;;;;;;;25.31;19.62;101457.16;5071834;28;20028;-62
2022/04/20 11:51:27;;;;;;;6.97;3.28;;;;;;;25.07;20.04;101450.91;5072198;28;20028;-62
2022/04/20 11:53:54;;;;;;;5.47;3.30;;;;;;;25.11;19.77;101458.84;5072116;28;20100;-62
2022/04/20 11:56:40;;;;;;;8.23;3.08;;;;;;;24.99;19.77;101462.00;5072431;28;20095;-62
2022/04/20 11:59:07;;;;;;;6.28;3.17;;;;;;;25.06;19.89;101451.84;5072357;28;20024;-62
2022/04/20 12:01:34;;;;;;;5.15;3.20;;;;;;;25.22;19.86;101444.88;5072128;28;20027;-62
2022/04/20 12:04:04;;;;;;;5.72;3.03;;;;;;;25.34;19.92;101444.38;5072002;28;20079;-63
2022/04/20 12:06:30;;;;;;;4.68;3.20;;;;;;;25.36;19.13;101442.50;5072152;28;20032;-62